Tiempo atmosférico en la estación meteorológica de Fuente De Cantos, Badajoz (602 m.)



Fecha
DESCASC
Temp. máxima en grados centígrados (hora)
DESCASC
Temp. mínima en grados centígrados (hora)
DESCASC
Temp. media en grados centígrados
DESCASC
Racha de viento máxima en m/sg (hora)
DESCASC
Velocidad máxima media en intervalos de 10 minutos(hora)
DESCASC
Precipitaciones diarias en mm
DESCASC
Precipitaciones de 00:00 a 06:00 en mm
DESCASC
Precipitaciones de 06:00 a 12:00 en mm
DESCASC
Precipitaciones de 12:00 a 18:00 en mm
DESCASC
Precipitaciones de 18:00 a 24:00 en mm
DESCASC
18-11-2019 11 (16:10) 3.4 (06:30) 7.2 13.89 (01:50) 11.11 (01:50) 1.4 1.4 0 0 0
17-11-2019 11.8 (16:10) 3.4 (01:50) 7.6 13.61 (18:10) 10 (23:20) 7.8 0 0.2 0.8 6.8
16-11-2019 11.3 (16:30) -0.1 (08:00) 5.6 9.72 (16:50) 6.11 (17:30) 0 0 0 0 0
15-11-2019 9.1 (15:20) 2.1 (08:10) 5.6 11.94 (12:20) 9.72 (12:20) 0 0 0 0 0
14-11-2019 9.9 (16:00) 5.1 (00:00) 7.5 19.17 (13:40) 14.17 (18:30) 2.2 0 2 0.2 0
13-11-2019 17 (15:10) 9.2 (00:00) 13.1 13.06 (02:00) 10.28 (10:10) 0.2 0 0.2 0 0
12-11-2019 14.1 (15:40) 5.5 (00:00) 9.8 12.22 (15:30) 10 (14:00) 0 0 0 0 0
11-11-2019 14 (17:30) 8 (00:20) 11 9.44 (15:30) 7.5 (15:20) 1 0.8 0 0.2 0
10-11-2019 12.1 (12:50) 5.8 (00:00) 9 16.94 (13:10) 12.22 (12:00) 0 0 0 0 0
09-11-2019 13.5 (14:50) 3.3 (00:00) 8.4 10.28 (19:50) 8.33 (19:50) 0 0 0 0 0
08-11-2019 12.8 (16:10) 5.5 (00:00) 9.2 12.22 (12:10) 8.89 (13:00) 0 0 0 0 0
07-11-2019 14 (15:20) 7.6 (00:00) 10.8 14.17 (16:50) 10.83 (16:50) 1.6 0.4 1.2 0 0
06-11-2019 15.9 (15:10) 6.6 (00:00) 11.2 11.11 (15:10) 8.61 (17:30) 0 0 0 0 0
05-11-2019 15.7 (15:30) 7.5 (00:00) 11.6 13.61 (00:40) 10 (00:40) 0.2 0.2 0 0 0
04-11-2019 17.2 (14:40) 11.1 (00:00) 14.2 17.22 (20:00) 12.78 (15:30) 2 0 1.2 0 0.8
03-11-2019 18.4 (15:20) 12.5 (00:00) 15.4 15.83 (12:00) 12.5 (13:20) 0 0 0 0 0
02-11-2019 20.5 (13:50) 13.3 (00:00) 16.9 16.94 (16:30) 12.5 (16:20) 2 0 0 0.6 1.4
01-11-2019 21.9 (16:00) 15.4 (00:00) 18.6 13.89 (15:00) 10.28 (14:50) 0.2 0 0.2 0 0
31-10-2019 22.3 (14:30) 16 (00:20) 19.1 10.28 (17:50) 6.67 (12:00) 2.8 0.4 0 0 2.4
30-10-2019 21.7 (16:20) 13.4 (00:00) 17.6 7.22 (16:40) 5.28 (17:40) 0 0 0 0 0
29-10-2019 21.6 (15:10) 14 (00:00) 17.8 6.94 (15:50) 4.72 (15:50) 2 2 0 0 0
28-10-2019 20.6 (15:10) 13 (00:00) 16.8 8.06 (12:20) 5.28 (11:50) 0 0 0 0 0
27-10-2019 24.8 (13:20) 14.4 (00:00) 19.6 8.06 (13:00) 6.11 (15:30) 0 0 0 0 0
26-10-2019 26.4 (15:50) 13.9 (00:00) 20.1 8.89 (16:00) 5.56 (12:00) 0 0 0 0 0
25-10-2019 25 (16:10) 10.8 (00:00) 17.9 8.89 (08:10) 6.94 (08:10) 0 0 0 0 0
24-10-2019 18.3 (18:00) 7.6 (00:00) 12.9 8.33 (02:00) 6.39 (02:00) 0 0 0 0 0
23-10-2019 11.7 (18:20) 6.6 (00:00) 9.1 12.22 (13:10) 10 (13:30) 0.2 0 0 0.2 0
22-10-2019 17 (16:30) 6.2 (00:00) 11.6 13.61 (18:40) 10.28 (18:40) 0 0 0 0 0

Gráficas

Temp. máximas Temp. mínimas Temp. medias Precipitaciones Rachas de viento máximas Velocidades máximas media en intervalos de 10 minutos

Datos horarios

Fecha y hora oficial Temperatura (ºC) Velocidad del viento (km/h) Dirección del viento Racha (km/h) Dirección de racha Precipitación (mm) Presión (hPa) Tendencia (hPa) Humedad (%)
2019-11-20 23:00:00 8.5 16 Sudoeste 22 Sudoeste 0.6 -- -- 95
2019-11-20 22:00:00 8.6 20 Sudoeste 26 Sudoeste 0.2 -- -- 91
2019-11-20 21:00:00 8.9 14 Sudoeste 21 Sudoeste 0 -- -- 90
2019-11-20 20:00:00 8.7 10 Sur 15 Sur 0 -- -- 90
2019-11-20 19:00:00 9 8 Sur 12 Sur 0 -- -- 89
2019-11-20 18:00:00 9.7 12 Sudoeste 18 Sudoeste 0 -- -- 85
2019-11-20 17:00:00 10.5 16 Sudoeste 30 Sudoeste 0 -- -- 84
2019-11-20 16:00:00 10 23 Sudoeste 33 Sudoeste 0 -- -- 92
2019-11-20 15:00:00 9.1 20 Sudoeste 40 Sur 0 -- -- 95
2019-11-20 14:00:00 8.6 23 Sur 38 Sur 0 -- -- 93
2019-11-20 13:00:00 8.8 25 Sur 36 Sur 0 -- -- 92
2019-11-20 12:00:00 6.8 22 Sudeste 39 Sudeste 0.2 -- -- 92
2019-11-20 11:00:00 6.3 26 Sudeste 36 Sudeste 1.2 -- -- 91
2019-11-20 10:00:00 5.7 17 Sudeste 26 Sudeste 2.8 -- -- 90
2019-11-20 09:00:00 6.1 13 Sudeste 28 Sudeste 1.8 -- -- 89
2019-11-20 08:00:00 6.5 17 Sudeste 27 Sudeste 2.8 -- -- 85
2019-11-20 07:00:00 6.7 14 Sudeste 21 Sudeste 0.2 -- -- 86
2019-11-20 06:00:00 5.7 13 Sudeste 19 Este 0 -- -- 86
2019-11-20 05:00:00 6.2 12 Este 23 Este 0 -- -- 84
2019-11-20 04:00:00 6.5 18 Sudeste 22 Sudeste 0 -- -- 84
2019-11-20 03:00:00 6.5 17 Sudeste 19 Sudeste 0 -- -- 83
2019-11-20 02:00:00 6.5 13 Sudeste 15 Sudeste 0 -- -- 82
2019-11-20 01:00:00 6.6 12 Sudeste 14 Sudeste 0 -- -- 76
2019-11-20 00:00:00 6.6 12 Sudeste 18 Sudeste 0 -- -- 76
2019-11-19 23:00:00 6.5 12 Sudeste 14 Sudeste 0 -- -- 79
2019-11-19 22:00:00 7.3 3 Sudeste 4 Sudeste 0 -- -- 82
2019-11-19 21:00:00 7.7 3 Oeste 8 Oeste 0 -- -- 82
2019-11-19 20:00:00 8.1 3 Sudoeste 9 Noroeste 0 -- -- 77
2019-11-19 19:00:00 8.9 7 Noroeste 10 Oeste 0 -- -- 77
2019-11-19 18:00:00 10.5 8 Noroeste 10 Oeste 0 -- -- 67
2019-11-19 17:00:00 11.1 6 Oeste 12 Oeste 0 -- -- 61
2019-11-19 16:00:00 11.3 8 Oeste 18 Oeste 0 -- -- 58
2019-11-19 15:00:00 11.3 7 Sudoeste 18 Oeste 0 -- -- 58
2019-11-19 14:00:00 11.3 13 Oeste 18 Sudoeste 0 -- -- 61
2019-11-19 13:00:00 10.7 6 Sudoeste 13 Oeste 0 -- -- 65
2019-11-19 12:00:00 9.6 2 Sudoeste 8 Sudeste 0 -- -- 69
2019-11-19 11:00:00 8.4 7 Sudeste 10 Sudeste 0 -- -- 78
2019-11-19 10:00:00 7.5 9 Sudeste 12 Sudeste 0 -- -- 80
2019-11-19 09:00:00 6.3 9 Sudeste 10 Sudeste 0 -- -- 81
2019-11-19 08:00:00 5.2 9 Sudeste 11 Sudeste 0 -- -- 83
2019-11-19 07:00:00 5.2 4 Sur 5 Sudeste 0 -- -- 84
2019-11-19 06:00:00 5.2 3 Sur 6 Sudoeste 0 -- -- 84
2019-11-19 05:00:00 5.4 5 Sudoeste 7 Sudoeste 0 -- -- 82
2019-11-19 04:00:00 6.1 3 Sudoeste 7 Sur 0 -- -- 80
2019-11-19 03:00:00 5.7 4 Sudoeste 6 Sudeste 0 -- -- 81
2019-11-19 02:00:00 6.4 3 Oeste -- -- 0 -- -- 79
2019-11-19 01:00:00 6.5 3 Sur 6 Sur 0 -- -- 77
2019-11-19 00:00:00 6.8 4 Sudoeste 6 Sudoeste 0 -- -- 77
2019-11-18 23:00:00 6.8 4 Sur 8 Sudeste 0 -- -- 78
2019-11-18 22:00:00 7.1 4 Sur 8 Sur 0 -- -- 78
2019-11-18 21:00:00 7.7 3 Oeste 6 Sur 0 -- -- 75
2019-11-18 20:00:00 7.8 3 Noroeste 14 Noroeste 0 -- -- 75
2019-11-18 19:00:00 8.2 12 Norte 16 Norte 0 -- -- 77
2019-11-18 18:00:00 9.7 14 Noroeste 20 Norte 0 -- -- 72
2019-11-18 17:00:00 10.6 16 Norte 20 Norte 0 -- -- 69
2019-11-18 16:00:00 10.9 14 Noroeste 22 Noroeste 0 -- -- 63
2019-11-18 15:00:00 10.7 14 Noroeste 22 Oeste 0 -- -- 66
2019-11-18 14:00:00 10.1 12 Noroeste 22 Noroeste 0 -- -- 70
2019-11-18 13:00:00 9.2 17 Noroeste 29 Noroeste 0 -- -- 77
2019-11-18 12:00:00 8.1 20 Noroeste 27 Noroeste 0 -- -- 80
2019-11-18 11:00:00 7.4 23 Noroeste 28 Noroeste 0 -- -- 86
2019-11-18 10:00:00 5.5 12 Noroeste 17 Noroeste 0 -- -- 89
2019-11-18 09:00:00 4.3 9 Noroeste 33 Noroeste 0 -- -- 90
2019-11-18 08:00:00 4.3 26 Noroeste 37 Noroeste 0 -- -- 89
2019-11-18 07:00:00 4.1 25 Noroeste 31 Noroeste 0 -- -- 96
2019-11-18 06:00:00 3.9 19 Oeste 28 Oeste 0 -- -- 96
2019-11-18 05:00:00 4.5 22 Noroeste 27 Noroeste 0 -- -- 96
2019-11-18 04:00:00 5.5 26 Noroeste 35 Noroeste 0 -- -- 95
2019-11-18 03:00:00 6.9 21 Noroeste 33 Noroeste 0 -- -- 94
2019-11-18 02:00:00 7.5 31 Noroeste 50 Noroeste 0 -- -- 90
2019-11-18 01:00:00 9.5 32 Noroeste 45 Noroeste 1.4 -- -- 97
2019-11-18 00:00:00 10.2 23 Oeste 46 Oeste 0.2 -- -- 97
2019-11-17 23:00:00 10.6 31 Oeste 44 Oeste 1.2 -- -- 98
2019-11-17 22:00:00 10.6 27 Oeste 43 Oeste 0.4 -- -- 97
2019-11-17 21:00:00 10.7 25 Oeste 36 Oeste 3.8 -- -- 97
2019-11-17 20:00:00 11.1 28 Oeste 41 Sudoeste 0.6 -- -- 96
2019-11-17 19:00:00 11.2 31 Sudoeste 49 Sudoeste 0.6 -- -- 95
2019-11-17 18:00:00 11.3 30 Sudoeste 45 Sudoeste 0 -- -- 96
2019-11-17 17:00:00 11.5 32 Sudoeste 47 Sudoeste 0.2 -- -- 95
2019-11-17 16:00:00 11.7 31 Sudoeste 40 Oeste 0.4 -- -- 95
2019-11-17 15:00:00 11.5 26 Oeste 37 Sudoeste 0 -- -- 96
2019-11-17 14:00:00 10.9 28 Sudoeste 37 Sudoeste 0.2 -- -- 96
2019-11-17 13:00:00 11 30 Sudoeste 44 Sudoeste 0 -- -- 94
2019-11-17 12:00:00 10.4 29 Sudoeste 37 Sudoeste 0 -- -- 97
2019-11-17 11:00:00 9 22 Sudoeste 32 Sudoeste 0 -- -- 97
2019-11-17 10:00:00 8.8 23 Oeste 31 Oeste 0 -- -- 97
2019-11-17 09:00:00 7.5 17 Sudoeste 26 Sudoeste 0.2 -- -- 96
2019-11-17 08:00:00 5.7 2 Sudeste 9 Sudoeste 0 -- -- 93
2019-11-17 07:00:00 5.3 8 Sudoeste 16 Oeste 0 -- -- 91
2019-11-17 06:00:00 4.7 12 Sudoeste 18 Sudoeste 0 -- -- 87
2019-11-17 05:00:00 3.8 12 Sudoeste 17 Oeste 0 -- -- 86
2019-11-17 04:00:00 3.9 6 Oeste 14 Oeste 0 -- -- 85
2019-11-17 03:00:00 3.6 6 Oeste 13 Oeste 0 -- -- 83
2019-11-17 02:00:00 3.4 8 Sudoeste 10 Sudoeste 0 -- -- 80
2019-11-17 01:00:00 3.9 7 Oeste 16 Oeste 0 -- -- 77
2019-11-17 00:00:00 4.3 10 Oeste 13 Oeste 0 -- -- 75
2019-11-16 23:00:00 4.8 7 Oeste 13 Sudoeste 0 -- -- 72
2019-11-16 22:00:00 5.4 9 Sudoeste 17 Oeste 0 -- -- 68
2019-11-16 21:00:00 5.5 11 Oeste 15 Oeste 0 -- -- 67
2019-11-16 20:00:00 6.3 9 Sudoeste 16 Oeste 0 -- -- 63
2019-11-16 19:00:00 7.2 13 Oeste 28 Oeste 0 -- -- 58
2019-11-16 18:00:00 9.6 16 Oeste 28 Oeste 0 -- -- 49
2019-11-16 17:00:00 10.4 16 Noroeste 35 Noroeste 0 -- -- 46
2019-11-16 16:00:00 11 21 Noroeste 30 Noroeste 0 -- -- 41
2019-11-16 15:00:00 10.3 15 Noroeste 26 Noroeste 0 -- -- 50
2019-11-16 14:00:00 9.2 16 Noroeste 24 Noroeste 0 -- -- 55
2019-11-16 13:00:00 7.8 10 Noroeste 17 Noroeste 0 -- -- 63
2019-11-16 12:00:00 6.7 13 Noroeste 19 Noroeste 0 -- -- 70
2019-11-16 11:00:00 4.4 11 Noroeste 15 Noroeste 0 -- -- 81
2019-11-16 10:00:00 1.9 5 Oeste 8 Oeste 0 -- -- 88
2019-11-16 09:00:00 0.6 2 Sur 13 Oeste 0 -- -- 91
2019-11-16 08:00:00 -0.1 10 Noroeste 16 Oeste 0 -- -- 91
2019-11-16 07:00:00 0.2 6 Oeste 10 Oeste 0 -- -- 90
2019-11-16 06:00:00 0.7 6 Oeste 13 Oeste 0 -- -- 88
2019-11-16 05:00:00 0.8 6 Oeste 13 Noroeste 0 -- -- 87
2019-11-16 04:00:00 0.8 6 Oeste 10 Noroeste 0 -- -- 88
2019-11-16 03:00:00 1.3 7 Oeste 12 Oeste 0 -- -- 85
2019-11-16 02:00:00 1.7 4 Sudoeste 12 Oeste 0 -- -- 84
2019-11-16 01:00:00 2 4 Oeste 12 Oeste 0 -- -- 82
2019-11-16 00:00:00 2.5 7 Oeste 15 Oeste 0 -- -- 80
2019-11-15 23:00:00 3.4 7 Noroeste 13 Noroeste 0 -- -- 79
2019-11-15 22:00:00 3.7 14 Oeste 16 Oeste 0 -- -- 75
2019-11-15 21:00:00 4.2 12 Noroeste 26 Noroeste 0 -- -- 73
2019-11-15 20:00:00 5.7 18 Oeste 28 Oeste 0 -- -- 67
2019-11-15 19:00:00 7 21 Oeste 26 Noroeste 0 -- -- 64
2019-11-15 18:00:00 7.5 19 Noroeste 31 Noroeste 0 -- -- 61
2019-11-15 17:00:00 8.3 26 Oeste 37 Oeste 0 -- -- 57
2019-11-15 16:00:00 8.3 25 Noroeste 39 Noroeste 0 -- -- 59
2019-11-15 15:00:00 8.4 29 Noroeste 39 Noroeste 0 -- -- 58
2019-11-15 14:00:00 8.1 28 Noroeste 41 Noroeste 0 -- -- 60
2019-11-15 13:00:00 7.5 29 Noroeste 43 Noroeste 0 -- -- 63
2019-11-15 12:00:00 6.6 35 Noroeste 42 Noroeste 0 -- -- 67
2019-11-15 11:00:00 5.4 24 Oeste 37 Oeste 0 -- -- 82
2019-11-15 10:00:00 4.5 24 Oeste 31 Oeste 0 -- -- 88
2019-11-15 09:00:00 3 16 Oeste 22 Oeste 0 -- -- 94
2019-11-15 08:00:00 2.2 11 Oeste 23 Oeste 0 -- -- 92
2019-11-15 07:00:00 2.8 17 Oeste 27 Oeste 0 -- -- 92
2019-11-15 06:00:00 3 19 Oeste 25 Oeste 0 -- -- 93
2019-11-15 05:00:00 3.1 19 Oeste 30 Oeste 0 -- -- 93
2019-11-15 04:00:00 3.1 23 Oeste 38 Oeste 0 -- -- 91
2019-11-15 03:00:00 3.7 28 Oeste 38 Oeste 0 -- -- 88
2019-11-15 02:00:00 3.7 22 Oeste 32 Oeste 0 -- -- 88
2019-11-15 01:00:00 4.4 23 Oeste 35 Oeste 0 -- -- 85
2019-11-15 00:00:00 5.1 28 Oeste 42 Oeste 0 -- -- 84
2019-11-14 23:00:00 6 32 Oeste 41 Oeste 0 -- -- 85
2019-11-14 22:00:00 6.2 29 Oeste 43 Oeste 0 -- -- 88
2019-11-14 21:00:00 6.4 31 Oeste 37 Oeste 0 -- -- 88
2019-11-14 20:00:00 6.2 25 Oeste 33 Oeste 0 -- -- 87
2019-11-14 19:00:00 6.3 19 Oeste 68 Noroeste 0 -- -- 83
2019-11-14 18:00:00 8.6 36 Oeste 58 Oeste 0 -- -- 70
2019-11-14 17:00:00 9.7 41 Oeste 56 Oeste 0 -- -- 66
2019-11-14 16:00:00 9.9 37 Oeste 55 Oeste 0 -- -- 66
2019-11-14 15:00:00 9.4 37 Oeste 51 Oeste 0 -- -- 71
2019-11-14 14:00:00 7.9 42 Noroeste 69 Noroeste 0.2 -- -- 78
2019-11-14 13:00:00 9 44 Oeste 56 Oeste 0 -- -- 79
2019-11-14 12:00:00 8.4 39 Noroeste 58 Oeste 0 -- -- 86
2019-11-14 11:00:00 8.7 39 Oeste 54 Oeste 0 -- -- 93
2019-11-14 10:00:00 8.9 40 Oeste 62 Oeste 2 -- -- 93
2019-11-14 09:00:00 9 31 Oeste 51 Oeste 0 -- -- 94
2019-11-14 08:00:00 8.7 37 Oeste 51 Oeste 0 -- -- 94
2019-11-14 07:00:00 8.4 30 Oeste 41 Oeste 0 -- -- 93
2019-11-14 06:00:00 8.7 27 Oeste 41 Oeste 0 -- -- 94
2019-11-14 05:00:00 8.2 22 Oeste 32 Oeste 0 -- -- 92
2019-11-14 04:00:00 7.7 22 Oeste 35 Oeste 0 -- -- 91
2019-11-14 03:00:00 8.2 29 Oeste 38 Oeste 0 -- -- 89
2019-11-14 02:00:00 8.3 23 Oeste 35 Oeste 0 -- -- 92
2019-11-14 01:00:00 7.8 22 Oeste 35 Oeste 0 -- -- 92
2019-11-14 00:00:00 9.4 19 Oeste 36 Oeste 0 -- -- 92
2019-11-13 23:00:00 9.7 25 Oeste 32 Oeste 0 -- -- 93
2019-11-13 22:00:00 9.9 19 Oeste 32 Oeste 0 -- -- 90
2019-11-13 21:00:00 11 25 Oeste 31 Oeste 0 -- -- 86
2019-11-13 20:00:00 11.9 23 Oeste 28 Oeste 0 -- -- 80
2019-11-13 19:00:00 13.4 21 Oeste 33 Oeste 0 -- -- 74
2019-11-13 18:00:00 14.5 24 Oeste 38 Oeste 0 -- -- 69
2019-11-13 17:00:00 16 27 Oeste 37 Oeste 0 -- -- 66
2019-11-13 16:00:00 16.6 26 Oeste 37 Oeste 0 -- -- 65
2019-11-13 15:00:00 16.6 23 Oeste 32 Oeste 0 -- -- 69
2019-11-13 14:00:00 15.3 25 Oeste 38 Oeste 0 -- -- 72
2019-11-13 13:00:00 14.6 28 Noroeste 41 Noroeste 0 -- -- 76
2019-11-13 12:00:00 13.3 31 Oeste 40 Oeste 0 -- -- 82
2019-11-13 11:00:00 12.4 30 Oeste 46 Oeste 0 -- -- 97
2019-11-13 10:00:00 12 36 Oeste 45 Oeste 0.2 -- -- 98
2019-11-13 09:00:00 11.4 27 Oeste 41 Oeste 0 -- -- 98
2019-11-13 08:00:00 10.9 27 Oeste 39 Oeste 0 -- -- 97
2019-11-13 07:00:00 10.9 29 Oeste 47 Oeste 0 -- -- 95
2019-11-13 06:00:00 11.3 26 Oeste 34 Oeste 0 -- -- 90
2019-11-13 05:00:00 11.2 23 Oeste 31 Oeste 0 -- -- 91
2019-11-13 04:00:00 11.1 24 Oeste 34 Oeste 0 -- -- 90
2019-11-13 03:00:00 10.7 29 Oeste 42 Oeste 0 -- -- 92
2019-11-13 02:00:00 10.6 35 Oeste 47 Oeste 0 -- -- 94
2019-11-13 01:00:00 10.3 31 Oeste 39 Oeste 0 -- -- 93
2019-11-13 00:00:00 10.1 27 Oeste 39 Oeste 0 -- -- 95
2019-11-12 23:00:00 10.3 26 Oeste 32 Oeste 0 -- -- 91
2019-11-12 22:00:00 10.6 23 Oeste 33 Oeste 0 -- -- 83
2019-11-12 21:00:00 10.2 19 Oeste 26 Oeste 0 -- -- 81
2019-11-12 20:00:00 10.5 15 Oeste 27 Oeste 0 -- -- 76
2019-11-12 19:00:00 10.8 22 Noroeste 33 Oeste 0 -- -- 70
2019-11-12 18:00:00 12.6 28 Noroeste 36 Noroeste 0 -- -- 60
2019-11-12 17:00:00 13.8 32 Noroeste 44 Noroeste 0 -- -- 56
2019-11-12 16:00:00 13.9 31 Noroeste 44 Noroeste 0 -- -- 54
2019-11-12 15:00:00 13.7 30 Noroeste 41 Noroeste 0 -- -- 53
2019-11-12 14:00:00 12.7 36 Noroeste 44 Noroeste 0 -- -- 54
2019-11-12 13:00:00 12.1 33 Noroeste 42 Noroeste 0 -- -- 58
2019-11-12 12:00:00 10 23 Noroeste 31 Noroeste 0 -- -- 79
2019-11-12 11:00:00 7.6 14 Oeste 22 Oeste 0 -- -- 99
2019-11-12 10:00:00 6.4 13 Noroeste 18 Noroeste 0 -- -- 99
2019-11-12 09:00:00 5.9 14 Oeste 17 Oeste 0 -- -- 98
2019-11-12 08:00:00 5.5 13 Oeste 17 Oeste 0 -- -- 98
2019-11-12 07:00:00 6.1 9 Oeste 13 Oeste 0 -- -- 98
2019-11-12 06:00:00 5.9 7 Oeste 10 Oeste 0 -- -- 97
2019-11-12 05:00:00 6.1 8 Oeste 10 Oeste 0 -- -- 97
2019-11-12 04:00:00 6.5 6 Sudoeste 13 Oeste 0 -- -- 96
2019-11-12 03:00:00 6.9 8 Oeste 13 Oeste 0 -- -- 96
2019-11-12 02:00:00 7.6 9 Oeste 12 Oeste 0 -- -- 95
2019-11-12 01:00:00 7.9 11 Oeste 14 Oeste 0 -- -- 94
2019-11-12 00:00:00 8.6 7 Sudoeste 12 Oeste 0 -- -- 93
2019-11-11 23:00:00 9 12 Oeste 14 Oeste 0 -- -- 93
2019-11-11 22:00:00 10.2 12 Oeste 22 Noroeste 0 -- -- 91
2019-11-11 21:00:00 11.4 14 Oeste 28 Oeste 0 -- -- 90
2019-11-11 20:00:00 12.8 16 Noroeste 27 Noroeste 0 -- -- 88
2019-11-11 19:00:00 13.4 18 Oeste 24 Oeste 0 -- -- 90
2019-11-11 18:00:00 13.9 19 Oeste 27 Noroeste 0 -- -- 90
2019-11-11 17:00:00 13.8 22 Noroeste 30 Oeste 0 -- -- 92
2019-11-11 16:00:00 13.4 25 Oeste 34 Oeste 0.2 -- -- 97
2019-11-11 15:00:00 12.9 21 Oeste 28 Oeste 0 -- -- 98
2019-11-11 14:00:00 12.6 18 Oeste 30 Noroeste 0 -- -- 99
2019-11-11 13:00:00 12 23 Oeste 31 Oeste 0 -- -- 99
2019-11-11 12:00:00 11.7 24 Oeste 31 Oeste 0 -- -- 98
2019-11-11 11:00:00 11 18 Oeste 24 Oeste 0 -- -- 99
2019-11-11 10:00:00 9.7 14 Oeste 19 Oeste 0 -- -- 98
2019-11-11 09:00:00 8.8 9 Sudoeste 10 Sudoeste 0 -- -- 98
2019-11-11 08:00:00 8.5 8 Oeste 11 Oeste 0 -- -- 98
2019-11-11 07:00:00 8.3 8 Oeste 10 Oeste 0 -- -- 98
2019-11-11 06:00:00 8.3 5 Oeste 12 Oeste 0.2 -- -- 98
2019-11-11 05:00:00 8.2 10 Oeste 13 Oeste 0 -- -- 98
2019-11-11 04:00:00 8.1 12 Oeste 15 Oeste 0.2 -- -- 98
2019-11-11 03:00:00 8.1 10 Oeste 21 Noroeste 0.2 -- -- 97
2019-11-11 02:00:00 8 17 Noroeste 23 Noroeste 0.2 -- -- 97
2019-11-11 01:00:00 8 20 Noroeste 25 Noroeste 0 -- -- 96
2019-11-11 00:00:00 8.2 19 Noroeste 27 Noroeste 0 -- -- 92
2019-11-10 23:00:00 8.8 22 Noroeste 34 Noroeste 0 -- -- 85
2019-11-10 22:00:00 8.9 26 Noroeste 33 Noroeste 0 -- -- 85
2019-11-10 21:00:00 8.9 28 Noroeste 41 Noroeste 0 -- -- 83
2019-11-10 20:00:00 9.2 33 Noroeste 40 Noroeste 0 -- -- 82
2019-11-10 19:00:00 9.1 24 Noroeste 39 Noroeste 0 -- -- 82
2019-11-10 18:00:00 9.7 33 Noroeste 45 Noroeste 0 -- -- 76
2019-11-10 17:00:00 10.8 34 Noroeste 48 Noroeste 0 -- -- 66
2019-11-10 16:00:00 11.2 38 Noroeste 48 Noroeste 0 -- -- 64
2019-11-10 15:00:00 11.3 37 Noroeste 49 Noroeste 0 -- -- 58
2019-11-10 14:00:00 11.2 36 Noroeste 61 Noroeste 0 -- -- 59
2019-11-10 13:00:00 12.1 39 Noroeste 55 Noroeste 0 -- -- 53
2019-11-10 12:00:00 11.1 44 Noroeste 54 Noroeste 0 -- -- 57
2019-11-10 11:00:00 10.2 34 Noroeste 43 Noroeste 0 -- -- 70
2019-11-10 10:00:00 8.7 28 Noroeste 36 Noroeste 0 -- -- 84
2019-11-10 09:00:00 6.8 16 Noroeste 21 Noroeste 0 -- -- 93
2019-11-10 08:00:00 6 13 Noroeste 24 Noroeste 0 -- -- 94
2019-11-10 07:00:00 6.5 17 Noroeste 28 Noroeste 0 -- -- 94
2019-11-10 06:00:00 6.7 22 Noroeste 29 Noroeste 0 -- -- 95
2019-11-10 05:00:00 5.9 11 Oeste 22 Oeste 0 -- -- 95
2019-11-10 04:00:00 6.7 21 Oeste 28 Noroeste 0 -- -- 93
2019-11-10 03:00:00 6.9 20 Oeste 28 Oeste 0 -- -- 94
2019-11-10 02:00:00 7.8 19 Oeste 26 Oeste 0 -- -- 91
2019-11-10 01:00:00 8.8 23 Oeste 33 Oeste 0 -- -- 91
2019-11-10 00:00:00 10.5 22 Oeste 30 Oeste 0 -- -- 94
2019-11-09 23:00:00 11.1 23 Oeste 30 Oeste 0 -- -- 96
2019-11-09 22:00:00 11 19 Oeste 29 Sudoeste 0 -- -- 95
2019-11-09 21:00:00 11 22 Oeste 32 Sudoeste 0 -- -- 92
2019-11-09 20:00:00 11.4 28 Sudoeste 37 Oeste 0 -- -- 82
2019-11-09 19:00:00 12.1 22 Oeste 31 Oeste 0 -- -- 76
2019-11-09 18:00:00 12.4 22 Oeste 33 Oeste 0 -- -- 73
2019-11-09 17:00:00 12.6 24 Oeste 32 Oeste 0 -- -- 68
2019-11-09 16:00:00 13.1 20 Oeste 36 Oeste 0 -- -- 65
2019-11-09 15:00:00 13.5 21 Oeste 32 Oeste 0 -- -- 61
2019-11-09 14:00:00 12.7 22 Noroeste 32 Noroeste 0 -- -- 60
2019-11-09 13:00:00 11.3 11 Oeste 21 Oeste 0 -- -- 61
2019-11-09 12:00:00 10 7 Oeste 18 Oeste 0 -- -- 63
2019-11-09 11:00:00 8.2 10 Oeste 17 Oeste 0 -- -- 73
2019-11-09 10:00:00 6.3 8 Oeste 12 Oeste 0 -- -- 83
2019-11-09 09:00:00 4.2 5 Sudoeste 8 Sudoeste 0 -- -- 87
2019-11-09 08:00:00 3.4 5 Sudoeste 9 Oeste 0 -- -- 90
2019-11-09 07:00:00 3.9 6 Oeste 8 Oeste 0 -- -- 89
2019-11-09 06:00:00 3.4 6 Sudoeste 12 Oeste 0 -- -- 89
2019-11-09 05:00:00 3.5 4 Sudoeste 11 Oeste 0 -- -- 88
2019-11-09 04:00:00 3.8 6 Oeste 10 Noroeste 0 -- -- 85
2019-11-09 03:00:00 4.5 6 Noroeste 10 Oeste 0 -- -- 83
2019-11-09 02:00:00 5.3 5 Oeste 9 Oeste 0 -- -- 80
2019-11-09 01:00:00 5.2 4 Sudoeste 9 Oeste 0 -- -- 80
2019-11-09 00:00:00 5.7 5 Oeste 15 Oeste 0 -- -- 78
2019-11-08 23:00:00 6.1 13 Oeste 17 Oeste 0 -- -- 77
2019-11-08 22:00:00 7 12 Oeste 14 Oeste 0 -- -- 72
2019-11-08 21:00:00 7.5 10 Oeste 17 Noroeste 0 -- -- 67
2019-11-08 20:00:00 8.3 9 Noroeste 19 Noroeste 0 -- -- 62
2019-11-08 19:00:00 9.6 19 Noroeste 30 Noroeste 0 -- -- 57
2019-11-08 18:00:00 11.4 23 Noroeste 36 Noroeste 0 -- -- 50
2019-11-08 17:00:00 12.4 22 Noroeste 31 Oeste 0 -- -- 47
2019-11-08 16:00:00 12.7 21 Noroeste 35 Noroeste 0 -- -- 46
2019-11-08 15:00:00 12.3 28 Noroeste 38 Noroeste 0 -- -- 48
2019-11-08 14:00:00 11.6 23 Noroeste 40 Noroeste 0 -- -- 48
2019-11-08 13:00:00 11.1 32 Noroeste 44 Noroeste 0 -- -- 49
2019-11-08 12:00:00 9.9 27 Noroeste 37 Noroeste 0 -- -- 56
2019-11-08 11:00:00 8.7 26 Noroeste 33 Noroeste 0 -- -- 64
2019-11-08 10:00:00 7.3 23 Noroeste 29 Oeste 0 -- -- 83
2019-11-08 09:00:00 5.8 13 Oeste 26 Oeste 0 -- -- 94
2019-11-08 08:00:00 5.6 18 Oeste 26 Oeste 0 -- -- 92
2019-11-08 07:00:00 6.2 16 Noroeste 25 Oeste 0 -- -- 92
2019-11-08 06:00:00 6.4 18 Oeste 28 Oeste 0 -- -- 90
2019-11-08 05:00:00 7 22 Oeste 31 Oeste 0 -- -- 88
2019-11-08 04:00:00 7 19 Oeste 34 Oeste 0 -- -- 89
2019-11-08 03:00:00 6.9 25 Oeste 33 Oeste 0 -- -- 88
2019-11-08 02:00:00 7.4 23 Oeste 32 Oeste 0 -- -- 88
2019-11-08 01:00:00 7.1 20 Oeste 25 Oeste 0 -- -- 89
2019-11-08 00:00:00 7.6 15 Oeste 28 Oeste 0 -- -- 85
2019-11-07 23:00:00 8.1 25 Oeste 33 Oeste 0 -- -- 80
2019-11-07 22:00:00 8.6 17 Noroeste 32 Oeste 0 -- -- 74
2019-11-07 21:00:00 9.4 22 Noroeste 30 Noroeste 0 -- -- 67
2019-11-07 20:00:00 9.3 23 Noroeste 36 Oeste 0 -- -- 69
2019-11-07 19:00:00 10.5 27 Noroeste 36 Oeste 0 -- -- 62
2019-11-07 18:00:00 11.8 32 Oeste 45 Noroeste 0 -- -- 56
2019-11-07 17:00:00 13.2 34 Oeste 51 Noroeste 0 -- -- 49
2019-11-07 16:00:00 13.9 31 Noroeste 45 Noroeste 0 -- -- 55
2019-11-07 15:00:00 13.6 35 Noroeste 46 Noroeste 0 -- -- 56
2019-11-07 14:00:00 13.2 31 Noroeste 44 Oeste 0 -- -- 62
2019-11-07 13:00:00 12.6 30 Noroeste 47 Noroeste 0 -- -- 63
2019-11-07 12:00:00 12 27 Noroeste 42 Noroeste 0 -- -- 73
2019-11-07 11:00:00 11.2 32 Noroeste 41 Oeste 0 -- -- 76
2019-11-07 10:00:00 11.1 30 Noroeste 40 Noroeste 0.2 -- -- 84
2019-11-07 09:00:00 12 24 Noroeste 32 Noroeste 0.2 -- -- 98
2019-11-07 08:00:00 12.2 13 Oeste 21 Sudoeste 0.4 -- -- 98
2019-11-07 07:00:00 11.9 15 Sudoeste 24 Sudoeste 0.4 -- -- 97
2019-11-07 06:00:00 11.6 16 Sudoeste 25 Oeste 0 -- -- 97
2019-11-07 05:00:00 11.2 16 Sudoeste 30 Sudoeste 0 -- -- 96
2019-11-07 04:00:00 10.8 17 Sudoeste 27 Sudoeste 0.2 -- -- 96
2019-11-07 03:00:00 10.5 19 Sudoeste 26 Oeste 0.2 -- -- 95
2019-11-07 02:00:00 10.2 21 Sudoeste 25 Sudoeste 0 -- -- 93
2019-11-07 01:00:00 10.8 13 Sudoeste 21 Oeste 0 -- -- 91
2019-11-07 00:00:00 10.7 19 Oeste 25 Oeste 0 -- -- 91
2019-11-06 23:00:00 10.3 15 Sudoeste 22 Oeste 0 -- -- 90
2019-11-06 22:00:00 10.8 18 Oeste 29 Oeste 0 -- -- 87
2019-11-06 21:00:00 11.5 15 Oeste 23 Oeste 0 -- -- 82
2019-11-06 20:00:00 11.4 18 Oeste 23 Oeste 0 -- -- 80
2019-11-06 19:00:00 11.9 19 Oeste 35 Oeste 0 -- -- 76
2019-11-06 18:00:00 13 28 Oeste 37 Oeste 0 -- -- 69
2019-11-06 17:00:00 14.1 25 Noroeste 40 Noroeste 0 -- -- 63
2019-11-06 16:00:00 14.7 26 Noroeste 40 Noroeste 0 -- -- 59
2019-11-06 15:00:00 15.6 28 Noroeste 36 Noroeste 0 -- -- 56
2019-11-06 14:00:00 15 23 Noroeste 36 Noroeste 0 -- -- 56
2019-11-06 13:00:00 13.8 22 Noroeste 39 Noroeste 0 -- -- 59
2019-11-06 12:00:00 11.8 25 Noroeste 33 Noroeste 0 -- -- 72
2019-11-06 11:00:00 8.5 18 Noroeste 22 Noroeste 0 -- -- 99
2019-11-06 10:00:00 7.2 15 Oeste 22 Noroeste 0 -- -- 98
2019-11-06 09:00:00 7.2 18 Noroeste 26 Oeste 0 -- -- 98
2019-11-06 08:00:00 7.2 18 Noroeste 22 Noroeste 0 -- -- 98
2019-11-06 07:00:00 7.1 10 Oeste 17 Noroeste 0 -- -- 98
2019-11-06 06:00:00 7.4 13 Noroeste 21 Oeste 0 -- -- 97
2019-11-06 05:00:00 7.3 13 Oeste 18 Oeste 0 -- -- 96
2019-11-06 04:00:00 6.6 12 Oeste 14 Oeste 0 -- -- 96
2019-11-06 03:00:00 6.7 11 Sudoeste 14 Oeste 0 -- -- 96
2019-11-06 02:00:00 7.5 7 Sudoeste 17 Oeste 0 -- -- 95
2019-11-06 01:00:00 7.5 7 Sudoeste 18 Oeste 0 -- -- 95
2019-11-06 00:00:00 7.5 11 Sudoeste 19 Oeste 0 -- -- 93
2019-11-05 23:00:00 8.5 14 Noroeste 23 Noroeste 0 -- -- 90
2019-11-05 22:00:00 9.3 21 Noroeste 27 Oeste 0 -- -- 87
2019-11-05 21:00:00 9.8 19 Noroeste 24 Oeste 0 -- -- 84
2019-11-05 20:00:00 10.8 21 Noroeste 27 Oeste 0 -- -- 79
2019-11-05 19:00:00 12 22 Oeste 31 Oeste 0 -- -- 72
2019-11-05 18:00:00 13.6 26 Oeste 43 Noroeste 0 -- -- 68
2019-11-05 17:00:00 15 32 Oeste 42 Oeste 0 -- -- 61
2019-11-05 16:00:00 14.8 31 Oeste 45 Oeste 0 -- -- 63
2019-11-05 15:00:00 14.3 32 Noroeste 41 Oeste 0 -- -- 66
2019-11-05 14:00:00 13.5 29 Noroeste 40 Noroeste 0 -- -- 72
2019-11-05 13:00:00 13.6 28 Oeste 44 Oeste 0 -- -- 76
2019-11-05 12:00:00 12.2 28 Oeste 43 Oeste 0 -- -- 83
2019-11-05 11:00:00 10.8 25 Oeste 42 Oeste 0 -- -- 90
2019-11-05 10:00:00 9.7 28 Oeste 36 Oeste 0 -- -- 94
2019-11-05 09:00:00 8.7 24 Oeste 32 Oeste 0 -- -- 96
2019-11-05 08:00:00 8.5 26 Oeste 32 Oeste 0 -- -- 96
2019-11-05 07:00:00 8.5 18 Oeste 25 Oeste 0 -- -- 95
2019-11-05 06:00:00 8.6 15 Oeste 32 Oeste 0 -- -- 94
2019-11-05 05:00:00 9 20 Oeste 28 Oeste 0 -- -- 92
2019-11-05 04:00:00 9.5 18 Oeste 29 Oeste 0 -- -- 92
2019-11-05 03:00:00 9.7 25 Oeste 43 Oeste 0 -- -- 91
2019-11-05 02:00:00 10.2 24 Oeste 37 Oeste 0 -- -- 92
2019-11-05 01:00:00 10.7 33 Oeste 49 Oeste 0.2 -- -- 96
2019-11-05 00:00:00 11.5 31 Oeste 44 Oeste 0.6 -- -- 96
2019-11-04 23:00:00 11.8 28 Oeste 46 Oeste 0 -- -- 96
2019-11-04 22:00:00 11.7 22 Sudoeste 29 Sudoeste 0 -- -- 97
2019-11-04 21:00:00 11.1 26 Oeste 48 Oeste 0.2 -- -- 97
2019-11-04 20:00:00 12.7 45 Oeste 62 Oeste 0 -- -- 91
2019-11-04 19:00:00 14.7 32 Sudoeste 46 Sudoeste 0 -- -- 82
2019-11-04 18:00:00 16 36 Sudoeste 47 Sudoeste 0 -- -- 73
2019-11-04 17:00:00 16.6 35 Sudoeste 49 Sudoeste 0 -- -- 71
2019-11-04 16:00:00 16.6 37 Sudoeste 59 Sudoeste 0 -- -- 70
2019-11-04 15:00:00 16.2 40 Sudoeste 57 Sudoeste 0 -- -- 74
2019-11-04 14:00:00 16 40 Sudoeste 49 Sudoeste 0 -- -- 72
2019-11-04 13:00:00 15.7 37 Sudoeste 48 Sudoeste 0 -- -- 73
2019-11-04 12:00:00 14.8 37 Oeste 47 Sudoeste 0 -- -- 76
2019-11-04 11:00:00 14.2 24 Oeste 35 Oeste 0 -- -- 94
2019-11-04 10:00:00 12.5 25 Oeste 41 Oeste 0.2 -- -- 98
2019-11-04 09:00:00 12.6 18 Sudoeste 31 Oeste 0 -- -- 98
2019-11-04 08:00:00 12.6 23 Oeste 37 Oeste 0 -- -- 98
2019-11-04 07:00:00 12.9 24 Oeste 33 Oeste 1 -- -- 98
2019-11-04 06:00:00 12.9 16 Sudoeste 22 Sudoeste 0 -- -- 97
2019-11-04 05:00:00 12.9 12 Sudoeste 21 Sudoeste 0 -- -- 97
2019-11-04 04:00:00 12.8 16 Oeste 27 Sudoeste 0 -- -- 96
2019-11-04 03:00:00 13 16 Oeste 28 Oeste 0 -- -- 93
2019-11-04 02:00:00 13.4 21 Oeste 30 Sudoeste 0 -- -- 90
2019-11-04 01:00:00 13.8 21 Oeste 27 Oeste 0 -- -- 91
2019-11-04 00:00:00 13.7 16 Oeste 27 Noroeste 0 -- -- 92
2019-11-03 23:00:00 14.3 22 Oeste 34 Noroeste 0 -- -- 89
2019-11-03 22:00:00 14.5 23 Oeste 34 Oeste 0 -- -- 89
2019-11-03 21:00:00 14.6 23 Oeste 33 Oeste 0 -- -- 86
2019-11-03 20:00:00 14.8 22 Oeste 34 Oeste 0 -- -- 84
2019-11-03 19:00:00 15.5 29 Oeste 40 Oeste 0 -- -- 79
2019-11-03 18:00:00 16.8 29 Oeste 48 Oeste 0 -- -- 70
2019-11-03 17:00:00 17.5 39 Oeste 51 Oeste 0 -- -- 66
2019-11-03 16:00:00 17.6 43 Oeste 57 Oeste 0 -- -- 67
2019-11-03 15:00:00 18 42 Oeste 55 Oeste 0 -- -- 66
2019-11-03 14:00:00 16.9 39 Oeste 55 Oeste 0 -- -- 75
2019-11-03 13:00:00 15.7 43 Oeste 56 Oeste 0 -- -- 85
2019-11-03 12:00:00 14.6 41 Oeste 57 Oeste 0 -- -- 90
2019-11-03 11:00:00 13.6 35 Oeste 54 Oeste 0 -- -- 96
2019-11-03 10:00:00 13.2 34 Oeste 47 Oeste 0 -- -- 93
2019-11-03 09:00:00 13.1 37 Oeste 52 Oeste 0 -- -- 91
2019-11-03 08:00:00 12.9 35 Oeste 45 Oeste 0 -- -- 93
2019-11-03 07:00:00 12.8 28 Oeste 48 Oeste 0 -- -- 92
2019-11-03 06:00:00 12.6 35 Oeste 49 Oeste 0 -- -- 93
2019-11-03 05:00:00 12.9 37 Oeste 50 Oeste 0 -- -- 90
2019-11-03 04:00:00 12.8 26 Oeste 37 Oeste 0 -- -- 91
2019-11-03 03:00:00 12.6 26 Oeste 36 Oeste 0 -- -- 92
2019-11-03 02:00:00 12.7 28 Oeste 38 Oeste 0 -- -- 91
2019-11-03 01:00:00 12.9 25 Oeste 37 Oeste 0 -- -- 90
2019-11-03 00:00:00 13.3 29 Oeste 41 Oeste 0 -- -- 91
2019-11-02 23:00:00 13.6 30 Oeste 43 Oeste 0 -- -- 92
2019-11-02 22:00:00 13.8 28 Oeste 40 Oeste 0 -- -- 96
2019-11-02 21:00:00 14.3 30 Oeste 42 Sudoeste 1 -- -- 96
2019-11-02 20:00:00 15 28 Oeste 37 Oeste 0.4 -- -- 92
2019-11-02 19:00:00 15.2 30 Oeste 43 Oeste 0 -- -- 90
2019-11-02 18:00:00 15.2 28 Sudoeste 45 Oeste 0 -- -- 92
2019-11-02 17:00:00 15.1 31 Oeste 61 Oeste 0.6 -- -- 92
2019-11-02 16:00:00 19.8 39 Oeste 57 Sudoeste 0 -- -- 61
2019-11-02 15:00:00 19.4 42 Oeste 53 Sudoeste 0 -- -- 62
2019-11-02 14:00:00 20.3 37 Sudoeste 51 Oeste 0 -- -- 58
2019-11-02 13:00:00 18.8 32 Oeste 49 Oeste 0 -- -- 67
2019-11-02 12:00:00 17.6 24 Oeste 37 Oeste 0 -- -- 78
2019-11-02 11:00:00 17.3 32 Oeste 47 Sudoeste 0 -- -- 78
2019-11-02 10:00:00 16.9 31 Sudoeste 47 Sudoeste 0 -- -- 82
2019-11-02 09:00:00 15.7 30 Oeste 40 Oeste 0 -- -- 90
2019-11-02 08:00:00 15.2 23 Oeste 31 Sudoeste 0 -- -- 92
2019-11-02 07:00:00 15.5 27 Sudoeste 35 Sudoeste 0 -- -- 92
2019-11-02 06:00:00 15.4 24 Sudoeste 36 Sudoeste 0 -- -- 90
2019-11-02 05:00:00 15.3 24 Sudoeste 39 Sudoeste 0 -- -- 92
2019-11-02 04:00:00 15.3 27 Sudoeste 38 Sudoeste 0 -- -- 91
2019-11-02 03:00:00 15.2 24 Sudoeste 33 Sudoeste 0 -- -- 90
2019-11-02 02:00:00 15.3 24 Sudoeste 38 Sudoeste 0 -- -- 89
2019-11-02 01:00:00 15.7 27 Sudoeste 39 Sudoeste 0 -- -- 89
2019-11-02 00:00:00 15.5 24 Sudoeste 30 Sudoeste 0 -- -- 91
2019-11-01 23:00:00 15.7 12 Oeste 27 Sudoeste 0 -- -- 91
2019-11-01 22:00:00 16.2 19 Sudoeste 35 Oeste 0 -- -- 89
2019-11-01 21:00:00 17.1 24 Sudoeste 32 Oeste 0 -- -- 85
2019-11-01 20:00:00 18 23 Oeste 30 Oeste 0 -- -- 80
2019-11-01 19:00:00 18.6 21 Oeste 33 Oeste 0 -- -- 78
2019-11-01 18:00:00 19.7 24 Oeste 39 Oeste 0 -- -- 73
2019-11-01 17:00:00 20.8 26 Oeste 46 Oeste 0 -- -- 69
2019-11-01 16:00:00 21.9 30 Oeste 44 Oeste 0 -- -- 65
2019-11-01 15:00:00 21.2 35 Oeste 50 Oeste 0 -- -- 68
2019-11-01 14:00:00 21.5 26 Oeste 39 Oeste 0 -- -- 70
2019-11-01 13:00:00 20.8 31 Oeste 39 Oeste 0 -- -- 74
2019-11-01 12:00:00 19.3 22 Oeste 33 Oeste 0.2 -- -- 80
2019-11-01 11:00:00 17.8 16 Oeste 25 Oeste 0 -- -- 91
2019-11-01 10:00:00 16.3 16 Oeste 21 Sudoeste 0 -- -- 98
2019-11-01 09:00:00 16.2 19 Oeste 24 Oeste 0 -- -- 98
2019-11-01 08:00:00 16.1 18 Oeste 25 Oeste 0 -- -- 98
2019-11-01 07:00:00 16.2 17 Oeste 23 Oeste 0 -- -- 97
2019-11-01 06:00:00 16.2 15 Oeste 19 Oeste 0 -- -- 97
2019-11-01 05:00:00 16.1 13 Oeste 21 Oeste 0 -- -- 97
2019-11-01 04:00:00 16 13 Oeste 18 Oeste 0 -- -- 96
2019-11-01 03:00:00 16 14 Oeste 27 Oeste 0 -- -- 96
2019-11-01 02:00:00 16.1 22 Oeste 28 Oeste 0 -- -- 95
2019-11-01 01:00:00 16.4 17 Oeste 22 Oeste 0 -- -- 95
2019-11-01 00:00:00 16.5 15 Oeste 24 Oeste 0 -- -- 95
2019-10-31 23:00:00 16.7 14 Oeste 20 Noroeste 0 -- -- 95
2019-10-31 22:00:00 17.4 14 Noroeste 24 Oeste 0 -- -- 94
2019-10-31 21:00:00 17.6 16 Oeste 23 Oeste 0 -- -- 95
2019-10-31 20:00:00 17.9 17 Noroeste 22 Oeste 2.4 -- -- 94
2019-10-31 19:00:00 18 7 Norte 34 Noroeste 0 -- -- 92
2019-10-31 18:00:00 19.1 22 Oeste 37 Oeste 0 -- -- 87
2019-10-31 17:00:00 21.3 23 Noroeste 33 Oeste 0 -- -- 69
2019-10-31 16:00:00 22.1 21 Oeste 33 Oeste 0 -- -- 65
2019-10-31 15:00:00 21.6 20 Oeste 34 Oeste 0 -- -- 67
2019-10-31 14:00:00 21.9 21 Oeste 31 Oeste 0 -- -- 63
2019-10-31 13:00:00 21.4 21 Oeste 32 Noroeste 0 -- -- 65
2019-10-31 12:00:00 20.1 24 Oeste 32 Oeste 0 -- -- 71
2019-10-31 11:00:00 18.2 18 Oeste 25 Oeste 0 -- -- 96
2019-10-31 10:00:00 17 11 Oeste 18 Oeste 0 -- -- 97
2019-10-31 09:00:00 16.5 7 Oeste 10 Oeste 0 -- -- 97
2019-10-31 08:00:00 16.2 5 Oeste 9 Oeste 0 -- -- 97
2019-10-31 07:00:00 16.2 5 Oeste 9 Oeste 0 -- -- 97
2019-10-31 06:00:00 16.2 5 Noroeste 14 Oeste 0 -- -- 96
2019-10-31 05:00:00 16.3 11 Oeste 14 Oeste 0.2 -- -- 96
2019-10-31 04:00:00 16.3 5 Noroeste 10 Oeste 0.2 -- -- 94
2019-10-31 03:00:00 16.6 5 Sudoeste 10 Sudoeste 0 -- -- 91
2019-10-31 02:00:00 16.5 8 Sudoeste 11 Sudoeste 0 -- -- 90
2019-10-31 01:00:00 16.2 4 Sur 10 Sudoeste 0 -- -- 90
2019-10-31 00:00:00 16.1 5 Sudoeste 13 Oeste 0 -- -- 90
2019-10-30 23:00:00 16.6 7 Oeste 15 Oeste 0 -- -- 87
2019-10-30 22:00:00 16.5 9 Sudoeste 12 Oeste 0 -- -- 83
2019-10-30 21:00:00 16.6 8 Sudoeste 13 Oeste 0 -- -- 81
2019-10-30 20:00:00 17.3 9 Oeste 21 Oeste 0 -- -- 78
2019-10-30 19:00:00 18.4 17 Oeste 24 Oeste 0 -- -- 71
2019-10-30 18:00:00 20 18 Oeste 25 Oeste 0 -- -- 63
2019-10-30 17:00:00 20.8 16 Oeste 26 Oeste 0 -- -- 60
2019-10-30 16:00:00 21.3 15 Oeste 24 Oeste 0 -- -- 58
2019-10-30 15:00:00 21.1 15 Sudoeste 24 Oeste 0 -- -- 58
2019-10-30 14:00:00 20.8 15 Oeste 23 Noroeste 0 -- -- 60
2019-10-30 13:00:00 20.9 12 Oeste 19 Sudoeste 0 -- -- 56
2019-10-30 12:00:00 20.3 4 Oeste 12 Sudeste 0 -- -- 59
2019-10-30 11:00:00 18.8 6 Este 12 Este 0 -- -- 68
2019-10-30 10:00:00 17.4 5 Este 9 Este 0 -- -- 76
2019-10-30 09:00:00 15.2 0 Calma 3 Sudoeste 0 -- -- 85
2019-10-30 08:00:00 13.9 3 Sudoeste 5 Sur 0 -- -- 88
2019-10-30 07:00:00 13.5 4 Sudeste 5 Sudeste 0 -- -- 86
2019-10-30 06:00:00 13.9 3 Oeste 7 Sudoeste 0 -- -- 84
2019-10-30 05:00:00 13.5 4 Sur 8 Oeste 0 -- -- 82
2019-10-30 04:00:00 14.1 6 Oeste 10 Oeste 0 -- -- 79
2019-10-30 03:00:00 15.2 2 Sur 5 Sudeste 0 -- -- 75
2019-10-30 02:00:00 15.1 2 Sur 6 Sudeste 0 -- -- 75
2019-10-30 01:00:00 15.1 4 Sur 8 Sudoeste 0 -- -- 75
2019-10-30 00:00:00 15.5 5 Sudoeste 6 Sudoeste 0 -- -- 72
2019-10-29 23:00:00 15.8 2 Sudoeste 5 Sudoeste 0 -- -- 71
2019-10-29 22:00:00 15.9 4 Sudoeste 9 Norte 0 -- -- 71
2019-10-29 21:00:00 16.5 8 Norte 15 Norte 0 -- -- 70
2019-10-29 20:00:00 17.1 9 Norte 15 Norte 0 -- -- 66
2019-10-29 19:00:00 17.7 12 Norte 18 Norte 0 -- -- 64
2019-10-29 18:00:00 20.1 11 Norte 17 Noroeste 0 -- -- 56
2019-10-29 17:00:00 20.9 12 Noroeste 18 Noroeste 0 -- -- 53
2019-10-29 16:00:00 20.4 15 Noroeste 25 Noroeste 0 -- -- 56
2019-10-29 15:00:00 21.2 10 Oeste 20 Oeste 0 -- -- 47
2019-10-29 14:00:00 20.3 8 Oeste 17 Noroeste 0 -- -- 57
2019-10-29 13:00:00 19 6 Noroeste 14 Noroeste 0 -- -- 67
2019-10-29 12:00:00 17.9 5 Noroeste 9 Noroeste 0 -- -- 73
2019-10-29 11:00:00 16.6 3 Oeste 6 Nordeste 0 -- -- 87
2019-10-29 10:00:00 14.8 4 Norte 7 Norte 0 -- -- 97
2019-10-29 09:00:00 14.5 3 Sudoeste 6 Oeste 0 -- -- 97
2019-10-29 08:00:00 14.2 0 Calma 12 Oeste 0 -- -- 96
2019-10-29 07:00:00 14.2 6 Sudoeste 8 Sudoeste 0 -- -- 96
2019-10-29 06:00:00 14 0 Calma 4 Norte 0 -- -- 96
2019-10-29 05:00:00 14.4 3 Nordeste 8 Norte 0 -- -- 96
2019-10-29 04:00:00 14.6 6 Norte 10 Noroeste 0.8 -- -- 96
2019-10-29 03:00:00 14.7 9 Noroeste 19 Noroeste 1.2 -- -- 95
2019-10-29 02:00:00 15.1 13 Noroeste 19 Oeste 0 -- -- 93
2019-10-29 01:00:00 16 14 Oeste 17 Oeste 0 -- -- 85
2019-10-29 00:00:00 16.2 0 Calma 9 Oeste 0 -- -- 82
2019-10-28 23:00:00 16.3 8 Oeste 19 Oeste 0 -- -- 81
2019-10-28 22:00:00 16.4 11 Oeste 15 Oeste 0 -- -- 76
2019-10-28 21:00:00 16.4 7 Sudoeste 8 Sudoeste 0 -- -- 73
2019-10-28 20:00:00 17.1 4 Noroeste 11 Oeste 0 -- -- 69
2019-10-28 19:00:00 18.1 3 Oeste 6 Norte 0 -- -- 66
2019-10-28 18:00:00 18.9 8 Noroeste 23 Oeste 0 -- -- 63
2019-10-28 17:00:00 19.9 14 Noroeste 22 Noroeste 0 -- -- 60
2019-10-28 16:00:00 20.1 12 Oeste 21 Sur 0 -- -- 57
2019-10-28 15:00:00 20.4 8 Sudoeste 21 Sudoeste 0 -- -- 58
2019-10-28 14:00:00 19.8 12 Sudoeste 23 Sudoeste 0 -- -- 60
2019-10-28 13:00:00 19.1 13 Sudoeste 29 Sudoeste 0 -- -- 62
2019-10-28 12:00:00 18.7 18 Sudoeste 27 Oeste 0 -- -- 64
2019-10-28 11:00:00 17.9 13 Oeste 23 Sudoeste 0 -- -- 67
2019-10-28 10:00:00 15.8 5 Oeste 9 Oeste 0 -- -- 78
2019-10-28 09:00:00 14.6 5 Sur 14 Sudeste 0 -- -- 82
2019-10-28 08:00:00 13.2 10 Sudeste 12 Sudeste 0 -- -- 86
2019-10-28 07:00:00 13.7 9 Sudeste 12 Sudeste 0 -- -- 82
2019-10-28 06:00:00 13.4 2 Nordeste 5 Nordeste 0 -- -- 82
2019-10-28 05:00:00 13.3 5 Sur 8 Sudeste 0 -- -- 75
2019-10-28 04:00:00 14.2 6 Noroeste 13 Oeste 0 -- -- 74
2019-10-28 03:00:00 15 8 Noroeste 16 Sudeste 0 -- -- 67
2019-10-28 02:00:00 16.4 15 Sudeste 20 Sudeste 0 -- -- 56
2019-10-28 01:00:00 15.5 2 Sudoeste 13 Este 0 -- -- 64
2019-10-28 00:00:00 15.9 8 Este 17 Sudeste 0 -- -- 63
2019-10-27 23:00:00 16.9 9 Sudeste 13 Sur 0 -- -- 60
2019-10-27 22:00:00 16.9 11 Sur 14 Sudeste 0 -- -- 58
2019-10-27 21:00:00 17.3 7 Sudeste 13 Sudeste 0 -- -- 50
2019-10-27 20:00:00 18 11 Sudeste 17 Sur 0 -- -- 49
2019-10-27 19:00:00 19.4 15 Sur 23 Sur 0 -- -- 46
2019-10-27 18:00:00 21.5 18 Sur 28 Sur 0 -- -- 41
2019-10-27 17:00:00 23.5 19 Sur 27 Sur 0 -- -- 35
2019-10-27 16:00:00 24.3 17 Sur 28 Sur 0 -- -- 33
2019-10-27 15:00:00 24.1 16 Sur 27 Sudeste 0 -- -- 33
2019-10-27 14:00:00 24.1 18 Sur 29 Sur 0 -- -- 35
2019-10-27 13:00:00 24.4 20 Sudeste 29 Sur 0 -- -- 34
2019-10-27 12:00:00 22.5 15 Sur 28 Sur 0 -- -- 35
2019-10-27 11:00:00 20.7 22 Sur 28 Sur 0 -- -- 36
2019-10-27 10:00:00 19.5 14 Sudeste 23 Sudeste 0 -- -- 37
2019-10-27 09:00:00 17.8 16 Sudeste 20 Sudeste 0 -- -- 39
2019-10-27 08:00:00 15 4 Sudeste 22 Sudeste 0 -- -- 43
2019-10-27 07:00:00 16.1 20 Sudeste 22 Sudeste 0 -- -- 39
2019-10-27 06:00:00 17.3 16 Este 25 Este 0 -- -- 36
2019-10-27 05:00:00 17 18 Este 24 Este 0 -- -- 35
2019-10-27 04:00:00 17.8 8 Sudeste 13 Sudeste 0 -- -- 36
2019-10-27 03:00:00 17.1 6 Sudeste 11 Este 0 -- -- 38
2019-10-27 02:00:00 17 5 Sudeste 8 Este 0 -- -- 38
2019-10-27 01:00:00 16.6 2 Sur 12 Sudeste 0 -- -- 38
2019-10-27 00:00:00 18.5 10 Sudeste 14 Sudeste 0 -- -- 34
2019-10-26 23:00:00 18.2 13 Sudeste 17 Sudeste 0 -- -- 36
2019-10-26 22:00:00 18.4 16 Sudeste 18 Sudeste 0 -- -- 35
2019-10-26 21:00:00 19 15 Sudeste 18 Sudeste 0 -- -- 33
2019-10-26 20:00:00 21.4 11 Sudeste 17 Sudeste 0 -- -- 32
2019-10-26 19:00:00 24.9 13 Sur 25 Sudoeste 0 -- -- 27
2019-10-26 18:00:00 25.8 17 Sudoeste 27 Sudoeste 0 -- -- 26
2019-10-26 17:00:00 26.2 17 Sudoeste 28 Sudoeste 0 -- -- 27
2019-10-26 16:00:00 26.3 17 Sudoeste 32 Sudoeste 0 -- -- 26
2019-10-26 15:00:00 25.9 10 Sur 24 Sudoeste 0 -- -- 27
2019-10-26 14:00:00 25.1 12 Sudoeste 26 Sudoeste 0 -- -- 27
2019-10-26 13:00:00 23.4 17 Sudeste 25 Sudeste 0 -- -- 28
2019-10-26 12:00:00 20.9 20 Sudeste 26 Sudeste 0 -- -- 38
2019-10-26 11:00:00 18.8 20 Sudeste 26 Sudeste 0 -- -- 45
2019-10-26 10:00:00 14.9 19 Sudeste 23 Sudeste 0 -- -- 55
2019-10-26 09:00:00 15.5 14 Este 21 Sudeste 0 -- -- 49
2019-10-26 08:00:00 15.7 14 Sudeste 22 Sudeste 0 -- -- 48
2019-10-26 07:00:00 15.4 17 Sudeste 22 Este 0 -- -- 48
2019-10-26 06:00:00 15.6 14 Este 23 Este 0 -- -- 50
2019-10-26 05:00:00 15.5 17 Este 23 Este 0 -- -- 53
2019-10-26 04:00:00 16.3 17 Este 26 Este 0 -- -- 51
2019-10-26 03:00:00 16.4 19 Este 26 Este 0 -- -- 50
2019-10-26 02:00:00 16.7 16 Este 22 Este 0 -- -- 49
2019-10-26 01:00:00 17.1 20 Este 24 Este 0 -- -- 46
2019-10-26 00:00:00 17.4 15 Este 21 Este 0 -- -- 45
2019-10-25 23:00:00 16.5 14 Sudeste 19 Este 0 -- -- 47
2019-10-25 22:00:00 18 14 Sudeste 17 Sudeste 0 -- -- 41
2019-10-25 21:00:00 18.3 13 Sudeste 19 Sudeste 0 -- -- 42
2019-10-25 20:00:00 19.7 16 Sudeste 22 Sudeste 0 -- -- 39
2019-10-25 19:00:00 23.4 16 Sudeste 22 Sur 0 -- -- 33
2019-10-25 18:00:00 24.7 17 Sudeste 26 Sudeste 0 -- -- 30
2019-10-25 17:00:00 25 12 Sudeste 26 Sudeste 0 -- -- 31
2019-10-25 16:00:00 24.8 14 Sudeste 27 Sudeste 0 -- -- 32
2019-10-25 15:00:00 24.3 17 Sudeste 27 Sudeste 0 -- -- 32
2019-10-25 14:00:00 23.1 18 Sudeste 28 Sudeste 0 -- -- 37
2019-10-25 13:00:00 21.7 18 Sudeste 30 Sudeste 0 -- -- 40
2019-10-25 12:00:00 18.7 18 Este 27 Este 0 -- -- 49
2019-10-25 11:00:00 16.3 19 Este 29 Este 0 -- -- 54
2019-10-25 10:00:00 13.8 19 Este 27 Este 0 -- -- 59
2019-10-25 09:00:00 12.3 21 Este 32 Este 0 -- -- 63
2019-10-25 08:00:00 12.5 24 Este 30 Este 0 -- -- 64
2019-10-25 07:00:00 12.1 21 Este 28 Este 0 -- -- 66
2019-10-25 06:00:00 11 19 Este 26 Este 0 -- -- 72
2019-10-25 05:00:00 11.4 20 Este 29 Este 0 -- -- 70
2019-10-25 04:00:00 11.5 18 Este 23 Este 0 -- -- 71
2019-10-25 03:00:00 11.6 13 Este 19 Este 0 -- -- 70
2019-10-25 02:00:00 12.6 13 Este 19 Este 0 -- -- 67
2019-10-25 01:00:00 13 13 Este 17 Este 0 -- -- 65
2019-10-25 00:00:00 13.6 12 Este 17 Este 0 -- -- 63
2019-10-24 23:00:00 13.4 11 Este 13 Este 0 -- -- 63
2019-10-24 22:00:00 12.8 9 Nordeste 10 Nordeste 0 -- -- 67
2019-10-24 21:00:00 13.9 8 Nordeste 10 Nordeste 0 -- -- 66
2019-10-24 20:00:00 15.7 5 Noroeste 18 Oeste 0 -- -- 56
2019-10-24 19:00:00 17.8 6 Noroeste 15 Noroeste 0 -- -- 49
2019-10-24 18:00:00 18.3 7 Noroeste 17 Noroeste 0 -- -- 48
2019-10-24 17:00:00 18.1 12 Oeste 18 Noroeste 0 -- -- 47
2019-10-24 16:00:00 17.2 10 Noroeste 21 Noroeste 0 -- -- 51
2019-10-24 15:00:00 16.2 14 Noroeste 23 Noroeste 0 -- -- 56
2019-10-24 14:00:00 14.9 14 Noroeste 28 Noroeste 0 -- -- 65
2019-10-24 13:00:00 13.5 15 Oeste 24 Oeste 0 -- -- 68
2019-10-24 12:00:00 11.3 11 Oeste 18 Oeste 0 -- -- 83
2019-10-24 11:00:00 9.1 12 Oeste 17 Oeste 0 -- -- 97
2019-10-24 10:00:00 8.3 12 Oeste 17 Oeste 0 -- -- 97
2019-10-24 09:00:00 8.1 10 Oeste 19 Oeste 0 -- -- 97
2019-10-24 08:00:00 8.2 13 Noroeste 19 Oeste 0 -- -- 96
2019-10-24 07:00:00 8.2 12 Oeste 16 Noroeste 0 -- -- 96
2019-10-24 06:00:00 7.8 12 Oeste 19 Oeste 0 -- -- 95
2019-10-24 05:00:00 8.1 13 Oeste 26 Oeste 0 -- -- 94
2019-10-24 04:00:00 8.1 15 Oeste 20 Oeste 0 -- -- 94
2019-10-24 03:00:00 8.8 17 Oeste 26 Oeste 0 -- -- 90
2019-10-24 02:00:00 9.5 23 Oeste 30 Oeste 0 -- -- 86
2019-10-24 01:00:00 9.8 17 Oeste 24 Oeste 0 -- -- 83
2019-10-24 00:00:00 10.5 18 Oeste 30 Oeste 0 -- -- 78
2019-10-23 23:00:00 10.9 21 Oeste 31 Oeste 0 -- -- 76
2019-10-23 22:00:00 10.4 12 Oeste 25 Noroeste 0 -- -- 82
2019-10-23 21:00:00 10.6 23 Noroeste 32 Noroeste 0 -- -- 81
2019-10-23 20:00:00 10.8 16 Oeste 23 Noroeste 0 -- -- 85
2019-10-23 19:00:00 11.7 21 Noroeste 32 Oeste 0 -- -- 76
2019-10-23 18:00:00 11.5 22 Noroeste 37 Oeste 0 -- -- 79
2019-10-23 17:00:00 11.2 28 Noroeste 41 Oeste 0.2 -- -- 81
2019-10-23 16:00:00 10.4 20 Noroeste 38 Oeste 0 -- -- 91
2019-10-23 15:00:00 11 24 Oeste 35 Oeste 0 -- -- 85
2019-10-23 14:00:00 11.1 27 Oeste 44 Oeste 0 -- -- 81
2019-10-23 13:00:00 11.2 31 Oeste 40 Sudoeste 0 -- -- 80
2019-10-23 12:00:00 10.4 28 Oeste 35 Oeste 0 -- -- 87
2019-10-23 11:00:00 8.6 16 Sudoeste 24 Sudoeste 0 -- -- 93
2019-10-23 10:00:00 7.3 13 Sudoeste 23 Sudoeste 0 -- -- 92
2019-10-23 09:00:00 7.1 11 Sudoeste 14 Sudoeste 0 -- -- 85
2019-10-23 08:00:00 7.1 6 Sudoeste 8 Sudoeste 0 -- -- 83
2019-10-23 07:00:00 6.9 6 Sudoeste 8 Sudoeste 0 -- -- 83
2019-10-23 06:00:00 7.1 5 Oeste 11 Oeste 0 -- -- 82
2019-10-23 05:00:00 6.9 7 Oeste 10 Oeste 0 -- -- 83
2019-10-23 04:00:00 7 6 Sudoeste 11 Oeste 0 -- -- 81
2019-10-23 03:00:00 6.9 10 Noroeste 12 Oeste 0 -- -- 81
2019-10-23 02:00:00 7.5 6 Sudoeste 9 Sudoeste 0 -- -- 80
2019-10-23 01:00:00 7.5 5 Sudoeste 8 Sudoeste 0 -- -- 81
2019-10-23 00:00:00 8.1 6 Oeste 8 Sudoeste 0 -- -- 80
2019-10-22 23:00:00 9 7 Sudoeste 9 Sudoeste 0 -- -- 75
2019-10-22 22:00:00 9.1 6 Sur 13 Sudeste 0 -- -- 78
2019-10-22 21:00:00 9.3 10 Sur 23 Este 0 -- -- 80
2019-10-22 20:00:00 9.8 19 Este 39 Nordeste 0 -- -- 81
2019-10-22 19:00:00 10.1 28 Nordeste 49 Nordeste 0 -- -- 82
2019-10-22 18:00:00 14.8 18 Norte 33 Norte 0 -- -- 48
2019-10-22 17:00:00 15.3 28 Norte 36 Norte 0 -- -- 52
2019-10-22 16:00:00 16.3 12 Norte 24 Norte 0 -- -- 46
2019-10-22 15:00:00 15.2 10 Norte 26 Norte 0 -- -- 55
2019-10-22 14:00:00 15.4 13 Norte 27 Norte 0 -- -- 51
2019-10-22 13:00:00 14.6 16 Nordeste 23 Norte 0 -- -- 55
2019-10-22 12:00:00 13.4 13 Nordeste 19 Nordeste 0 -- -- 60
2019-10-22 11:00:00 10.9 5 Nordeste 11 Nordeste 0 -- -- 73
2019-10-22 10:00:00 9 4 Norte 10 Nordeste 0 -- -- 79
2019-10-22 09:00:00 6.5 7 Nordeste 15 Nordeste 0 -- -- 85
2019-10-22 08:00:00 6.6 9 Nordeste 12 Nordeste 0 -- -- 83
2019-10-22 07:00:00 6.4 11 Nordeste 12 Nordeste 0 -- -- 86
2019-10-22 06:00:00 7.7 3 Sudeste 12 Este 0 -- -- 80
2019-10-22 05:00:00 8.3 12 Este 16 Este 0 -- -- 77
2019-10-22 04:00:00 8.3 5 Sudeste 10 Nordeste 0 -- -- 76
2019-10-22 03:00:00 8.2 8 Nordeste 12 Norte 0 -- -- 77
2019-10-22 02:00:00 9.3 9 Norte 12 Norte 0 -- -- 73
2019-10-22 01:00:00 9.1 8 Nordeste 15 Este 0 -- -- 73
2019-10-22 00:00:00 9.7 13 Nordeste 18 Nordeste 0 -- -- 72